createdAt,value
2018-02-03T00:01:00.000Z,97886
2018-02-03T00:06:00.000Z,97879
2018-02-03T00:11:00.000Z,97877
2018-02-03T00:16:00.000Z,97884
2018-02-03T00:21:00.000Z,97869
2018-02-03T00:26:00.000Z,97867
2018-02-03T00:31:00.000Z,97861
2018-02-03T00:36:00.000Z,97860
2018-02-03T00:41:00.000Z,97858
2018-02-03T00:46:00.000Z,97861
2018-02-03T00:51:00.000Z,97848
2018-02-03T00:56:00.000Z,97862
2018-02-03T01:01:00.000Z,97873
2018-02-03T01:06:00.000Z,97867
2018-02-03T01:11:00.000Z,97878
2018-02-03T01:16:00.000Z,97863
2018-02-03T01:21:00.000Z,97847
2018-02-03T01:26:00.000Z,97833
2018-02-03T01:31:00.000Z,97836
2018-02-03T01:36:00.000Z,97836
2018-02-03T01:41:00.000Z,97834
2018-02-03T01:46:00.000Z,97819
2018-02-03T01:51:00.000Z,97799
2018-02-03T01:56:00.000Z,97817
2018-02-03T02:01:00.000Z,97804
2018-02-03T02:06:00.000Z,97803
2018-02-03T02:11:00.000Z,97794
2018-02-03T02:16:00.000Z,97784
2018-02-03T02:21:00.000Z,97787
2018-02-03T02:26:00.000Z,97775
2018-02-03T02:31:00.000Z,97769
2018-02-03T02:36:00.000Z,97773
2018-02-03T02:41:00.000Z,97768
2018-02-03T02:46:00.000Z,97764
2018-02-03T02:51:00.000Z,97764
2018-02-03T02:56:00.000Z,97774
2018-02-03T03:01:00.000Z,97757
2018-02-03T03:06:00.000Z,97744
2018-02-03T03:11:00.000Z,97760
2018-02-03T03:16:00.000Z,97765
2018-02-03T03:21:00.000Z,97764
2018-02-03T03:26:00.000Z,97766
2018-02-03T03:31:00.000Z,97758
2018-02-03T03:36:00.000Z,97732
2018-02-03T03:41:00.000Z,97721
2018-02-03T03:46:00.000Z,97718
2018-02-03T03:52:00.000Z,97726
2018-02-03T03:57:00.000Z,97734
2018-02-03T04:02:00.000Z,97727
2018-02-03T04:07:00.000Z,97726
2018-02-03T04:12:00.000Z,97736
2018-02-03T04:17:00.000Z,97732
2018-02-03T04:22:00.000Z,97716
2018-02-03T04:27:00.000Z,97723
2018-02-03T04:32:00.000Z,97706
2018-02-03T04:37:00.000Z,97699
2018-02-03T04:42:00.000Z,97703
2018-02-03T04:47:00.000Z,97715
2018-02-03T04:52:00.000Z,97697
2018-02-03T04:57:00.000Z,97692
2018-02-03T05:02:00.000Z,97693
2018-02-03T05:07:00.000Z,97699
2018-02-03T05:12:00.000Z,97703
2018-02-03T05:17:00.000Z,97704
2018-02-03T05:22:00.000Z,97697
2018-02-03T05:27:00.000Z,97689
2018-02-03T05:32:00.000Z,97684
2018-02-03T05:37:00.000Z,97673
2018-02-03T05:42:00.000Z,97657
2018-02-03T05:47:00.000Z,97659
2018-02-03T05:52:00.000Z,97635
2018-02-03T05:57:00.000Z,97640
2018-02-03T06:02:00.000Z,97607
2018-02-03T06:07:00.000Z,97598
2018-02-03T06:12:00.000Z,97586
2018-02-03T06:17:00.000Z,97578
2018-02-03T06:22:00.000Z,97582
2018-02-03T06:27:00.000Z,97606
2018-02-03T06:32:00.000Z,97605
2018-02-03T06:37:00.000Z,97623
2018-02-03T06:42:00.000Z,97645
2018-02-03T06:47:00.000Z,97660
2018-02-03T06:52:00.000Z,97667
2018-02-03T06:57:00.000Z,97686
2018-02-03T07:02:00.000Z,97690
2018-02-03T07:07:00.000Z,97704
2018-02-03T07:12:00.000Z,97689
2018-02-03T07:17:00.000Z,97687
2018-02-03T07:22:00.000Z,97676
2018-02-03T07:27:00.000Z,97659
2018-02-03T07:32:00.000Z,97648
2018-02-03T07:37:00.000Z,97623
2018-02-03T07:42:00.000Z,97615
2018-02-03T07:47:00.000Z,97603
2018-02-03T07:52:00.000Z,97586
2018-02-03T07:57:00.000Z,97588
2018-02-03T08:02:00.000Z,97583
2018-02-03T08:07:00.000Z,97567
2018-02-03T08:12:00.000Z,97534
2018-02-03T08:17:00.000Z,97518
2018-02-03T08:22:00.000Z,97520
2018-02-03T08:27:00.000Z,97553
2018-02-03T08:32:00.000Z,97604
2018-02-03T08:37:00.000Z,97610
2018-02-03T08:42:00.000Z,97608
2018-02-03T08:47:00.000Z,97606
2018-02-03T08:52:00.000Z,97589
2018-02-03T08:57:00.000Z,97579
2018-02-03T09:02:00.000Z,97577
2018-02-03T09:07:00.000Z,97568
2018-02-03T09:12:00.000Z,97564
2018-02-03T09:17:00.000Z,97544
2018-02-03T09:22:00.000Z,97541
2018-02-03T09:27:00.000Z,97551
2018-02-03T09:32:00.000Z,97545
2018-02-03T09:37:00.000Z,97545
2018-02-03T09:42:00.000Z,97537
2018-02-03T09:47:00.000Z,97538
2018-02-03T09:52:00.000Z,97530
2018-02-03T09:57:00.000Z,97526
2018-02-03T10:03:00.000Z,97510
2018-02-03T10:08:00.000Z,97495
2018-02-03T10:13:00.000Z,97471
2018-02-03T10:18:00.000Z,97447
2018-02-03T10:23:00.000Z,97457
2018-02-03T10:28:00.000Z,97451
2018-02-03T10:33:00.000Z,97475
2018-02-03T10:38:00.000Z,97488
2018-02-03T10:43:00.000Z,97499
2018-02-03T10:48:00.000Z,97519
2018-02-03T10:53:00.000Z,97531
2018-02-03T10:58:00.000Z,97529
2018-02-03T11:03:00.000Z,97526
2018-02-03T11:08:00.000Z,97535
2018-02-03T11:13:00.000Z,97532
2018-02-03T11:18:00.000Z,97522
2018-02-03T11:23:00.000Z,97525
2018-02-03T11:28:00.000Z,97514
2018-02-03T11:33:00.000Z,97492
2018-02-03T11:38:00.000Z,97480
2018-02-03T11:43:00.000Z,97467
2018-02-03T11:48:00.000Z,97447
2018-02-03T11:53:00.000Z,97433
2018-02-03T11:58:00.000Z,97427
2018-02-03T12:03:00.000Z,97414
2018-02-03T12:08:00.000Z,97405
2018-02-03T12:13:00.000Z,97395
2018-02-03T12:18:00.000Z,97386
2018-02-03T12:23:00.000Z,97393
2018-02-03T12:28:00.000Z,97379
2018-02-03T12:33:00.000Z,97374
2018-02-03T12:38:00.000Z,97368
2018-02-03T12:43:00.000Z,97370
2018-02-03T12:48:00.000Z,97363
2018-02-03T12:53:00.000Z,97372
2018-02-03T12:58:00.000Z,97366
2018-02-03T13:03:00.000Z,97366
2018-02-03T13:08:00.000Z,97368
2018-02-03T13:13:00.000Z,97367
2018-02-03T13:18:00.000Z,97373
2018-02-03T13:23:00.000Z,97381
2018-02-03T13:28:00.000Z,97375
2018-02-03T13:33:00.000Z,97374
2018-02-03T13:38:00.000Z,97379
2018-02-03T13:43:00.000Z,97375
2018-02-03T13:48:00.000Z,97392
2018-02-03T13:53:00.000Z,97400
2018-02-03T13:58:00.000Z,97387
2018-02-03T14:03:00.000Z,97395
2018-02-03T14:08:00.000Z,97397
2018-02-03T14:13:00.000Z,97406
2018-02-03T14:18:00.000Z,97396
2018-02-03T14:23:00.000Z,97399
2018-02-03T14:28:00.000Z,97400
2018-02-03T14:33:00.000Z,97397
2018-02-03T14:38:00.000Z,97405
2018-02-03T14:43:00.000Z,97410
2018-02-03T14:48:00.000Z,97411
2018-02-03T14:53:00.000Z,97421
2018-02-03T14:58:00.000Z,97420
2018-02-03T15:03:00.000Z,97418
2018-02-03T15:08:00.000Z,97417
2018-02-03T15:13:00.000Z,97415
2018-02-03T15:18:00.000Z,97412
2018-02-03T15:23:00.000Z,97413
2018-02-03T15:28:00.000Z,97417
2018-02-03T15:33:00.000Z,97423
2018-02-03T15:38:00.000Z,97427
2018-02-03T15:43:00.000Z,97421
2018-02-03T15:48:00.000Z,97431
2018-02-03T15:53:00.000Z,97440
2018-02-03T15:58:00.000Z,97431
2018-02-03T16:03:00.000Z,97436
2018-02-03T16:08:00.000Z,97441
2018-02-03T16:14:00.000Z,97451
2018-02-03T16:19:00.000Z,97442
2018-02-03T16:24:00.000Z,97461
2018-02-03T16:29:00.000Z,97469
2018-02-03T16:34:00.000Z,97465
2018-02-03T16:39:00.000Z,97468
2018-02-03T16:44:00.000Z,97481
2018-02-03T16:49:00.000Z,97474
2018-02-03T16:54:00.000Z,97473
2018-02-03T16:59:00.000Z,97474
2018-02-03T17:04:00.000Z,97484
2018-02-03T17:09:00.000Z,97489
2018-02-03T17:14:00.000Z,97480
2018-02-03T17:19:00.000Z,97495
2018-02-03T17:24:00.000Z,97496
2018-02-03T17:29:00.000Z,97490
2018-02-03T17:34:00.000Z,97507
2018-02-03T17:39:00.000Z,97505
2018-02-03T17:44:00.000Z,97521
2018-02-03T17:49:00.000Z,97523
2018-02-03T17:54:00.000Z,97539
2018-02-03T17:59:00.000Z,97535
2018-02-03T18:04:00.000Z,97532
2018-02-03T18:09:00.000Z,97542
2018-02-03T18:14:00.000Z,97550
2018-02-03T18:19:00.000Z,97545
2018-02-03T18:24:00.000Z,97556
2018-02-03T18:29:00.000Z,97553
2018-02-03T18:34:00.000Z,97557
2018-02-03T18:39:00.000Z,97558
2018-02-03T18:44:00.000Z,97566
2018-02-03T18:49:00.000Z,97566
2018-02-03T18:54:00.000Z,97566
2018-02-03T18:59:00.000Z,97571
2018-02-03T19:04:00.000Z,97567
2018-02-03T19:09:00.000Z,97579
2018-02-03T19:14:00.000Z,97577
2018-02-03T19:19:00.000Z,97571
2018-02-03T19:24:00.000Z,97581
2018-02-03T19:29:00.000Z,97574
2018-02-03T19:34:00.000Z,97580
2018-02-03T19:39:00.000Z,97596
2018-02-03T19:44:00.000Z,97598
2018-02-03T19:49:00.000Z,97602
2018-02-03T19:54:00.000Z,97609
2018-02-03T19:59:00.000Z,97621
2018-02-03T20:04:00.000Z,97631
2018-02-03T20:09:00.000Z,97634
2018-02-03T20:14:00.000Z,97634
2018-02-03T20:19:00.000Z,97638
2018-02-03T20:24:00.000Z,97637
2018-02-03T20:29:00.000Z,97652
2018-02-03T20:34:00.000Z,97649
2018-02-03T20:39:00.000Z,97650
2018-02-03T20:44:00.000Z,97665
2018-02-03T20:49:00.000Z,97673
2018-02-03T20:54:00.000Z,97670
2018-02-03T20:59:00.000Z,97676
2018-02-03T21:04:00.000Z,97677
2018-02-03T21:09:00.000Z,97688
2018-02-03T21:14:00.000Z,97690
2018-02-03T21:19:00.000Z,97688
2018-02-03T21:24:00.000Z,97701
2018-02-03T21:29:00.000Z,97706
2018-02-03T21:34:00.000Z,97712
2018-02-03T21:39:00.000Z,97707
2018-02-03T21:44:00.000Z,97728
2018-02-03T21:49:00.000Z,97714
2018-02-03T21:54:00.000Z,97730
2018-02-03T21:59:00.000Z,97729
2018-02-03T22:04:00.000Z,97728
2018-02-03T22:09:00.000Z,97726
2018-02-03T22:14:00.000Z,97730
2018-02-03T22:19:00.000Z,97740
2018-02-03T22:24:00.000Z,97733
2018-02-03T22:30:00.000Z,97735
2018-02-03T22:35:00.000Z,97738
2018-02-03T22:40:00.000Z,97743
2018-02-03T22:45:00.000Z,97744
2018-02-03T22:50:00.000Z,97748
2018-02-03T22:55:00.000Z,97753
2018-02-03T23:00:00.000Z,97768
2018-02-03T23:05:00.000Z,97761
2018-02-03T23:10:00.000Z,97781
2018-02-03T23:15:00.000Z,97783
2018-02-03T23:20:00.000Z,97783
2018-02-03T23:25:00.000Z,97785
2018-02-03T23:30:00.000Z,97793
2018-02-03T23:35:00.000Z,97794
2018-02-03T23:40:00.000Z,97799
2018-02-03T23:45:00.000Z,97805
2018-02-03T23:50:00.000Z,97817
2018-02-03T23:55:00.000Z,97815
